createdAt,value
2022-10-10T00:01:20.400Z,1.45
2022-10-10T00:03:47.696Z,1.73
2022-10-10T00:06:15.631Z,1.92
2022-10-10T00:08:43.573Z,1.40
2022-10-10T00:11:11.334Z,1.60
2022-10-10T00:13:38.299Z,1.92
2022-10-10T00:16:05.709Z,1.88
2022-10-10T00:18:33.183Z,1.80
2022-10-10T00:20:59.979Z,1.92
2022-10-10T00:23:26.792Z,1.80
2022-10-10T00:25:53.666Z,2.22
2022-10-10T00:28:20.467Z,1.80
2022-10-10T00:30:47.189Z,1.60
2022-10-10T00:33:13.952Z,1.63
2022-10-10T00:35:41.115Z,1.48
2022-10-10T00:38:08.449Z,1.80
2022-10-10T00:40:35.322Z,1.50
2022-10-10T00:43:02.240Z,1.80
2022-10-10T00:45:32.100Z,1.80
2022-10-10T00:48:18.218Z,1.75
2022-10-10T00:50:48.920Z,1.52
2022-10-10T00:53:18.614Z,1.40
2022-10-10T00:55:46.240Z,1.60
2022-10-10T00:58:14.077Z,1.58
2022-10-10T01:00:40.814Z,1.60
2022-10-10T01:03:07.513Z,1.58
2022-10-10T01:05:35.006Z,2.05
2022-10-10T01:08:04.346Z,1.80
2022-10-10T01:10:38.630Z,1.75
2022-10-10T01:13:28.186Z,1.42
2022-10-10T01:16:01.465Z,1.63
2022-10-10T01:18:34.047Z,1.60
2022-10-10T01:21:09.298Z,1.77
2022-10-10T01:23:50.723Z,2.05
2022-10-10T01:26:41.974Z,1.48
2022-10-10T01:29:23.124Z,1.70
2022-10-10T01:31:54.173Z,1.55
2022-10-10T01:34:27.196Z,1.50
2022-10-10T01:37:11.954Z,1.30
2022-10-10T01:40:04.245Z,1.92
2022-10-10T01:42:56.441Z,1.65
2022-10-10T01:45:24.108Z,1.52
2022-10-10T01:47:52.823Z,1.63
2022-10-10T01:50:24.324Z,1.55
2022-10-10T01:52:51.085Z,1.40
2022-10-10T01:55:17.874Z,1.45
2022-10-10T01:58:03.213Z,1.63
2022-10-10T02:00:35.245Z,1.70
2022-10-10T02:03:10.818Z,1.58
2022-10-10T02:05:40.370Z,1.58
2022-10-10T02:08:13.799Z,1.42
2022-10-10T02:10:47.886Z,1.88
2022-10-10T02:13:16.489Z,1.80
2022-10-10T02:15:48.645Z,1.70
2022-10-10T02:18:18.639Z,1.42
2022-10-10T02:20:46.099Z,1.58
2022-10-10T02:23:16.257Z,1.45
2022-10-10T02:25:47.462Z,1.50
2022-10-10T02:28:16.875Z,1.70
2022-10-10T02:30:46.597Z,1.55
2022-10-10T02:33:19.332Z,1.50
2022-10-10T02:35:49.342Z,1.65
2022-10-10T02:38:17.264Z,1.95
2022-10-10T02:40:46.352Z,1.60
2022-10-10T02:43:15.341Z,1.80
2022-10-10T02:45:42.870Z,1.55
2022-10-10T02:48:09.743Z,1.88
2022-10-10T02:50:36.520Z,1.55
2022-10-10T02:53:03.159Z,1.75
2022-10-10T02:55:29.802Z,1.60
2022-10-10T02:57:56.400Z,1.65
2022-10-10T03:00:23.035Z,1.55
2022-10-10T03:02:50.067Z,1.65
2022-10-10T03:05:17.019Z,1.75
2022-10-10T03:07:43.627Z,1.88
2022-10-10T03:10:10.396Z,1.48
2022-10-10T03:12:37.217Z,1.48
2022-10-10T03:15:09.189Z,1.92
2022-10-10T03:17:37.978Z,1.88
2022-10-10T03:20:05.145Z,1.50
2022-10-10T03:22:31.772Z,1.92
2022-10-10T03:24:58.434Z,2.03
2022-10-10T03:27:25.171Z,2.03
2022-10-10T03:29:52.043Z,1.60
2022-10-10T03:32:18.622Z,1.73
2022-10-10T03:34:45.559Z,1.63
2022-10-10T03:37:12.274Z,1.88
2022-10-10T03:39:38.899Z,1.67
2022-10-10T03:42:05.549Z,1.98
2022-10-10T03:44:32.270Z,1.77
2022-10-10T03:46:58.932Z,2.00
2022-10-10T03:49:25.681Z,1.90
2022-10-10T03:51:53.522Z,1.80
2022-10-10T03:54:20.500Z,1.70
2022-10-10T03:56:47.146Z,2.10
2022-10-10T03:59:13.775Z,1.77
2022-10-10T04:01:40.521Z,1.67
2022-10-10T04:04:07.205Z,2.20
2022-10-10T04:06:33.890Z,2.15
2022-10-10T04:09:00.565Z,1.92
2022-10-10T04:11:27.385Z,2.10
2022-10-10T04:13:54.002Z,2.10
2022-10-10T04:16:20.614Z,2.40
2022-10-10T04:18:47.219Z,2.65
2022-10-10T04:21:13.950Z,2.30
2022-10-10T04:23:41.189Z,2.20
2022-10-10T04:26:08.264Z,2.20
2022-10-10T04:28:35.074Z,2.05
2022-10-10T04:31:01.721Z,2.00
2022-10-10T04:33:28.454Z,1.80
2022-10-10T04:35:55.069Z,2.00
2022-10-10T04:38:22.661Z,1.73
2022-10-10T04:40:50.800Z,1.77
2022-10-10T04:43:18.414Z,1.98
2022-10-10T04:45:45.087Z,1.77
2022-10-10T04:48:11.742Z,2.15
2022-10-10T04:50:38.633Z,2.20
2022-10-10T04:53:05.247Z,2.28
2022-10-10T04:55:31.872Z,2.25
2022-10-10T04:57:58.705Z,2.10
2022-10-10T05:00:25.474Z,2.17
2022-10-10T05:02:52.421Z,2.10
2022-10-10T05:05:19.216Z,1.90
2022-10-10T05:07:45.836Z,2.30
2022-10-10T05:10:12.464Z,2.30
2022-10-10T05:12:39.114Z,1.83
2022-10-10T05:15:06.203Z,2.15
2022-10-10T05:17:32.823Z,2.08
2022-10-10T05:19:59.430Z,2.20
2022-10-10T05:22:26.061Z,2.00
2022-10-10T05:24:52.766Z,2.38
2022-10-10T05:27:19.382Z,2.53
2022-10-10T05:29:45.989Z,2.15
2022-10-10T05:32:12.666Z,2.00
2022-10-10T05:34:39.308Z,2.30
2022-10-10T05:37:05.963Z,2.20
2022-10-10T05:39:32.660Z,2.15
2022-10-10T05:41:59.309Z,2.20
2022-10-10T05:44:26.061Z,2.75
2022-10-10T05:46:52.720Z,2.50
2022-10-10T05:49:19.680Z,2.53
2022-10-10T05:51:46.308Z,2.47
2022-10-10T05:54:13.002Z,2.45
2022-10-10T05:56:39.598Z,2.67
2022-10-10T05:59:06.440Z,2.30
2022-10-10T06:01:33.321Z,2.60
2022-10-10T06:03:59.988Z,2.20
2022-10-10T06:06:26.617Z,2.80
2022-10-10T06:08:53.441Z,2.47
2022-10-10T06:11:20.665Z,2.30
2022-10-10T06:13:49.621Z,2.22
2022-10-10T06:16:16.512Z,2.05
2022-10-10T06:18:43.154Z,2.25
2022-10-10T06:21:11.923Z,1.90
2022-10-10T06:23:38.968Z,2.28
2022-10-10T06:26:05.650Z,2.47
2022-10-10T06:28:33.232Z,2.25
2022-10-10T06:31:01.641Z,2.20
2022-10-10T06:33:28.744Z,2.40
2022-10-10T06:35:55.409Z,2.72
2022-10-10T06:38:22.087Z,2.15
2022-10-10T06:40:48.700Z,2.67
2022-10-10T06:43:16.676Z,2.47
2022-10-10T06:45:46.450Z,2.60
2022-10-10T06:48:14.796Z,2.75
2022-10-10T06:50:41.694Z,4.03
2022-10-10T06:53:08.391Z,2.90
2022-10-10T06:55:35.069Z,2.78
2022-10-10T06:58:01.745Z,2.28
2022-10-10T07:00:28.428Z,2.60
2022-10-10T07:02:55.071Z,2.67
2022-10-10T07:05:21.703Z,2.53
2022-10-10T07:07:48.325Z,2.50
2022-10-10T07:10:15.748Z,2.22
2022-10-10T07:12:45.065Z,2.70
2022-10-10T07:15:12.430Z,2.33
2022-10-10T07:17:39.501Z,2.30
2022-10-10T07:20:06.828Z,2.13
2022-10-10T07:22:33.703Z,2.40
2022-10-10T07:25:00.346Z,2.70
2022-10-10T07:27:27.277Z,1.98
2022-10-10T07:29:53.887Z,3.17
2022-10-10T07:32:20.483Z,2.25
2022-10-10T07:34:47.123Z,2.28
2022-10-10T07:37:13.731Z,2.17
2022-10-10T07:39:40.476Z,2.63
2022-10-10T07:42:07.088Z,2.38
2022-10-10T07:44:34.702Z,2.15
2022-10-10T07:47:01.690Z,2.30
2022-10-10T07:49:28.408Z,2.38
2022-10-10T07:52:00.492Z,2.38
2022-10-10T07:54:29.025Z,2.63
2022-10-10T07:56:55.992Z,2.28
2022-10-10T07:59:23.649Z,2.25
2022-10-10T08:01:51.205Z,2.97
2022-10-10T08:04:19.224Z,2.03
2022-10-10T08:06:46.127Z,2.22
2022-10-10T08:09:12.789Z,2.60
2022-10-10T08:11:39.684Z,2.10
2022-10-10T08:14:06.521Z,2.20
2022-10-10T08:16:33.145Z,2.47
2022-10-10T08:18:59.832Z,2.60
2022-10-10T08:21:26.665Z,2.50
2022-10-10T08:23:53.318Z,2.05
2022-10-10T08:26:20.144Z,2.30
2022-10-10T08:28:48.474Z,2.10
2022-10-10T08:31:17.588Z,2.40
2022-10-10T08:33:46.133Z,2.60
2022-10-10T08:36:17.418Z,2.30
2022-10-10T08:38:44.665Z,2.50
2022-10-10T08:41:42.675Z,2.45
2022-10-10T08:44:21.315Z,2.75
2022-10-10T08:47:03.173Z,2.47
2022-10-10T08:49:35.028Z,2.47
2022-10-10T08:52:13.584Z,2.83
2022-10-10T08:54:42.550Z,2.78
2022-10-10T08:57:40.377Z,2.75
2022-10-10T09:00:16.349Z,2.50
2022-10-10T09:02:57.308Z,2.70
2022-10-10T09:05:34.838Z,2.22
2022-10-10T09:08:27.615Z,2.17
2022-10-10T09:11:09.514Z,2.55
2022-10-10T09:13:40.322Z,2.33
2022-10-10T09:16:18.240Z,2.58
2022-10-10T09:19:14.781Z,2.42
2022-10-10T09:21:45.115Z,2.70
2022-10-10T09:24:32.359Z,2.15
2022-10-10T09:27:09.950Z,2.42
2022-10-10T09:29:53.798Z,2.30
2022-10-10T09:32:28.657Z,2.15
2022-10-10T09:35:16.606Z,2.42
2022-10-10T09:37:48.214Z,2.03
2022-10-10T09:40:47.427Z,2.03
2022-10-10T09:43:19.344Z,2.47
2022-10-10T09:45:58.565Z,2.25
2022-10-10T09:48:31.368Z,2.15
2022-10-10T09:50:58.718Z,2.10
2022-10-10T09:53:25.512Z,2.35
2022-10-10T09:55:53.755Z,2.20
2022-10-10T09:58:41.292Z,2.28
2022-10-10T10:01:23.237Z,2.15
2022-10-10T10:04:29.800Z,1.80
2022-10-10T10:07:17.492Z,2.03
2022-10-10T10:09:52.105Z,1.88
2022-10-10T10:12:31.909Z,2.00
2022-10-10T10:15:02.983Z,2.20
2022-10-10T10:17:30.231Z,2.20
2022-10-10T10:19:56.994Z,2.00
2022-10-10T10:22:38.055Z,1.80
2022-10-10T10:25:35.377Z,1.98
2022-10-10T10:28:11.246Z,2.35
2022-10-10T10:30:39.154Z,2.33
2022-10-10T10:33:08.794Z,2.17
2022-10-10T10:35:46.156Z,2.30
2022-10-10T10:38:44.965Z,2.08
2022-10-10T10:41:22.709Z,2.10
2022-10-10T10:44:31.370Z,2.15
2022-10-10T10:46:57.917Z,2.03
2022-10-10T10:49:53.504Z,1.73
2022-10-10T10:52:37.889Z,1.98
2022-10-10T10:55:32.924Z,1.90
2022-10-10T10:58:57.893Z,1.80
2022-10-10T11:01:23.497Z,1.95
2022-10-10T11:05:16.616Z,1.90
2022-10-10T11:07:20.695Z,2.45
2022-10-10T11:09:51.014Z,1.92
2022-10-10T11:12:26.799Z,2.03
2022-10-10T11:14:58.232Z,2.00
2022-10-10T11:17:38.569Z,2.03
2022-10-10T11:20:26.332Z,2.45
2022-10-10T11:23:09.307Z,2.30
2022-10-10T11:25:57.183Z,1.90
2022-10-10T11:28:35.732Z,2.10
2022-10-10T11:31:16.070Z,2.30
2022-10-10T11:33:46.855Z,2.05
2022-10-10T11:36:19.579Z,1.98
2022-10-10T11:38:51.272Z,1.60
2022-10-10T11:41:19.542Z,2.25
2022-10-10T11:43:51.439Z,1.98
2022-10-10T11:46:32.910Z,1.63
2022-10-10T11:49:11.776Z,1.95
2022-10-10T11:52:21.539Z,2.15
2022-10-10T11:55:28.598Z,1.55
2022-10-10T11:58:04.501Z,1.92
2022-10-10T12:00:40.717Z,1.80
2022-10-10T12:03:09.195Z,2.20
2022-10-10T12:05:40.325Z,1.88
2022-10-10T12:08:17.954Z,2.20
2022-10-10T12:10:52.321Z,1.83
2022-10-10T12:13:47.385Z,1.95
2022-10-10T12:16:20.520Z,1.60
2022-10-10T12:18:53.445Z,2.00
2022-10-10T12:21:24.771Z,1.80
2022-10-10T12:24:10.041Z,1.55
2022-10-10T12:26:54.702Z,2.15
2022-10-10T12:29:50.115Z,1.83
2022-10-10T12:32:20.698Z,1.50
2022-10-10T12:34:50.334Z,1.85
2022-10-10T12:37:26.383Z,1.80
2022-10-10T12:40:05.258Z,2.05
2022-10-10T12:42:40.474Z,1.42
2022-10-10T12:45:28.815Z,2.08
2022-10-10T12:48:27.876Z,1.73
2022-10-10T12:51:01.855Z,1.52
2022-10-10T12:53:32.826Z,1.40
2022-10-10T12:56:01.787Z,1.85
2022-10-10T12:58:34.710Z,1.33
2022-10-10T13:01:05.938Z,1.42
2022-10-10T13:03:39.986Z,1.30
2022-10-10T13:06:18.042Z,1.67
2022-10-10T13:08:45.367Z,1.80
2022-10-10T13:11:15.103Z,1.63
2022-10-10T13:13:53.172Z,1.33
2022-10-10T13:16:27.595Z,1.38
2022-10-10T13:19:00.216Z,2.08
2022-10-10T13:21:33.949Z,1.70
2022-10-10T13:24:04.205Z,1.60
2022-10-10T13:26:43.822Z,1.60
2022-10-10T13:29:24.195Z,1.90
2022-10-10T13:31:58.254Z,1.65
2022-10-10T13:34:28.085Z,1.52
2022-10-10T13:37:01.191Z,1.38
2022-10-10T13:39:29.929Z,1.83
2022-10-10T13:41:57.229Z,1.40
2022-10-10T13:44:33.560Z,1.60
2022-10-10T13:47:38.736Z,1.70
2022-10-10T13:50:22.913Z,1.42
2022-10-10T13:52:49.741Z,2.30
2022-10-10T13:55:25.373Z,1.73
2022-10-10T13:57:58.264Z,1.77
2022-10-10T14:00:30.399Z,1.80
2022-10-10T14:02:57.083Z,2.03
2022-10-10T14:05:31.442Z,1.60
2022-10-10T14:07:58.798Z,2.30
2022-10-10T14:10:27.962Z,2.15
2022-10-10T14:12:59.273Z,2.10
2022-10-10T14:15:37.067Z,2.00
2022-10-10T14:18:21.534Z,2.28
2022-10-10T14:20:49.138Z,2.28
2022-10-10T14:23:16.019Z,2.20
2022-10-10T14:25:45.182Z,2.35
2022-10-10T14:28:21.128Z,2.28
2022-10-10T14:30:48.125Z,1.77
2022-10-10T14:33:16.983Z,2.28
2022-10-10T14:35:45.152Z,1.90
2022-10-10T14:38:13.800Z,2.28
2022-10-10T14:40:45.430Z,1.85
2022-10-10T14:43:13.108Z,1.60
2022-10-10T14:45:40.383Z,1.75
2022-10-10T14:50:56.880Z,1.73
2022-10-10T14:53:23.527Z,1.55
2022-10-10T14:55:55.231Z,1.90
2022-10-10T14:58:23.066Z,1.63
2022-10-10T15:00:51.758Z,1.38
2022-10-10T15:03:18.508Z,1.50
2022-10-10T15:05:45.192Z,1.75
2022-10-10T15:08:14.369Z,1.50
2022-10-10T15:10:41.991Z,2.40
2022-10-10T15:13:11.048Z,1.65
2022-10-10T15:15:38.031Z,1.80
2022-10-10T15:18:05.007Z,1.90
2022-10-10T15:20:31.800Z,1.70
2022-10-10T15:23:00.039Z,2.05
2022-10-10T15:25:33.126Z,2.17
2022-10-10T15:28:04.206Z,2.42
2022-10-10T15:30:31.233Z,2.22
2022-10-10T15:32:57.828Z,2.72
2022-10-10T15:35:25.574Z,3.10
2022-10-10T15:37:52.995Z,2.85
2022-10-10T15:40:22.120Z,3.08
2022-10-10T15:42:50.172Z,2.67
2022-10-10T15:45:31.317Z,2.90
2022-10-10T15:48:04.582Z,2.63
2022-10-10T15:50:32.359Z,2.38
2022-10-10T15:52:58.967Z,2.53
2022-10-10T15:55:26.161Z,3.63
2022-10-10T15:57:52.869Z,2.60
2022-10-10T16:00:19.599Z,2.40
2022-10-10T16:02:46.275Z,2.45
2022-10-10T16:05:13.011Z,5.68
2022-10-10T16:07:48.056Z,5.30
2022-10-10T16:10:15.614Z,5.15
2022-10-10T16:12:42.303Z,3.33
2022-10-10T16:15:09.367Z,3.17
2022-10-10T16:17:36.280Z,3.08
2022-10-10T16:41:46.963Z,0.90
2022-10-10T16:44:15.157Z,0.70
2022-10-10T16:46:41.769Z,0.80
2022-10-10T16:49:10.081Z,0.40
2022-10-10T16:51:37.439Z,0.70
2022-10-10T16:54:05.742Z,0.60
2022-10-10T16:56:32.872Z,0.70
2022-10-10T16:59:00.264Z,0.60
2022-10-10T17:01:27.961Z,0.60
2022-10-10T17:03:55.203Z,0.60
2022-10-10T17:06:23.296Z,0.70
2022-10-10T17:08:52.502Z,0.80
2022-10-10T17:11:20.562Z,0.85
2022-10-10T17:13:48.146Z,0.73
2022-10-10T17:19:05.087Z,0.65
2022-10-10T17:21:31.778Z,1.00
2022-10-10T17:23:58.940Z,1.30
2022-10-10T17:26:27.752Z,0.82
2022-10-10T17:28:56.088Z,1.00
2022-10-10T17:31:23.537Z,0.82
2022-10-10T17:33:54.026Z,1.50
2022-10-10T17:36:23.584Z,1.00
2022-10-10T17:38:50.864Z,1.15
2022-10-10T17:41:18.660Z,1.15
2022-10-10T17:43:46.021Z,1.05
2022-10-10T17:46:34.430Z,0.93
2022-10-10T17:49:02.753Z,1.30
2022-10-10T17:51:29.383Z,1.30
2022-10-10T17:53:59.513Z,1.10
2022-10-10T17:56:26.473Z,0.88
2022-10-10T17:58:53.106Z,1.05
2022-10-10T18:01:20.282Z,1.20
2022-10-10T18:03:48.152Z,1.23
2022-10-10T18:06:18.530Z,1.00
2022-10-10T18:08:47.723Z,0.80
2022-10-10T18:11:17.024Z,1.40
2022-10-10T18:13:44.237Z,1.17
2022-10-10T18:16:14.199Z,1.50
2022-10-10T18:18:46.809Z,1.98
2022-10-10T18:21:16.646Z,1.60
2022-10-10T18:23:43.306Z,1.40
2022-10-10T18:26:15.209Z,1.30
2022-10-10T18:28:42.956Z,1.58
2022-10-10T18:31:18.464Z,1.38
2022-10-10T18:33:45.518Z,1.80
2022-10-10T18:36:15.286Z,1.40
2022-10-10T18:38:42.283Z,1.40
2022-10-10T18:41:14.025Z,1.30
2022-10-10T18:43:42.381Z,1.30
2022-10-10T18:46:11.136Z,1.40
2022-10-10T18:48:38.567Z,1.67
2022-10-10T18:51:21.620Z,1.15
2022-10-10T18:53:48.467Z,1.45
2022-10-10T18:56:24.169Z,1.30
2022-10-10T18:58:53.760Z,1.25
2022-10-10T19:01:24.855Z,1.30
2022-10-10T19:03:52.602Z,1.25
2022-10-10T19:06:19.839Z,1.20
2022-10-10T19:08:46.699Z,1.13
2022-10-10T19:11:30.786Z,1.23
2022-10-10T19:13:59.951Z,1.40
2022-10-10T19:16:27.235Z,1.30
2022-10-10T19:18:58.350Z,1.67
2022-10-10T19:21:28.708Z,1.48
2022-10-10T19:23:55.684Z,1.48
2022-10-10T19:26:22.552Z,1.60
2022-10-10T19:28:49.255Z,1.83
2022-10-10T19:31:18.099Z,1.77
2022-10-10T19:33:45.732Z,1.92
2022-10-10T19:36:13.421Z,1.10
2022-10-10T19:38:42.109Z,1.45
2022-10-10T19:41:14.458Z,1.90
2022-10-10T19:43:42.700Z,1.83
2022-10-10T19:46:12.579Z,1.80
2022-10-10T19:48:39.842Z,2.42
2022-10-10T19:51:09.730Z,1.75
2022-10-10T19:53:37.483Z,1.90
2022-10-10T19:56:07.269Z,1.70
2022-10-10T19:58:36.853Z,2.00
2022-10-10T20:01:13.125Z,3.35
2022-10-10T20:03:39.990Z,4.05
2022-10-10T20:06:07.501Z,4.90
2022-10-10T20:08:34.687Z,4.53
2022-10-10T20:11:01.980Z,6.32
2022-10-10T20:13:28.776Z,5.18
2022-10-10T20:15:59.592Z,5.20
2022-10-10T20:18:26.411Z,4.40
2022-10-10T20:20:53.150Z,4.47
2022-10-10T20:23:23.237Z,4.55
2022-10-10T20:25:50.066Z,4.50
2022-10-10T20:28:18.395Z,3.20
2022-10-10T20:30:50.927Z,2.95
2022-10-10T20:33:21.387Z,3.08
2022-10-10T20:35:52.388Z,2.95
2022-10-10T20:38:22.559Z,2.65
2022-10-10T20:40:49.165Z,2.47
2022-10-10T20:43:16.347Z,2.40
2022-10-10T20:45:43.049Z,2.55
2022-10-10T20:48:09.922Z,2.10
2022-10-10T20:50:37.673Z,2.10
2022-10-10T20:53:05.752Z,2.22
2022-10-10T20:55:32.920Z,1.77
2022-10-10T20:58:00.114Z,2.40
2022-10-10T21:00:26.982Z,1.70
2022-10-10T21:02:55.562Z,1.83
2022-10-10T21:05:22.199Z,1.73
2022-10-10T21:07:48.802Z,1.80
2022-10-10T21:10:15.557Z,2.42
2022-10-10T21:12:42.155Z,2.00
2022-10-10T21:15:09.253Z,2.25
2022-10-10T21:17:35.923Z,2.90
2022-10-10T21:20:02.638Z,3.13
2022-10-10T21:22:29.264Z,2.90
2022-10-10T21:24:55.874Z,2.80
2022-10-10T21:27:22.536Z,2.72
2022-10-10T21:29:49.230Z,3.15
2022-10-10T21:32:15.894Z,2.97
2022-10-10T21:34:42.797Z,2.75
2022-10-10T21:37:09.407Z,2.72
2022-10-10T21:39:36.090Z,2.80
2022-10-10T21:42:02.801Z,2.65
2022-10-10T21:44:29.440Z,2.45
2022-10-10T21:46:56.125Z,2.58
2022-10-10T21:49:22.762Z,2.30
2022-10-10T21:51:50.011Z,2.72
2022-10-10T21:54:16.725Z,2.75
2022-10-10T21:56:44.087Z,2.50
2022-10-10T21:59:11.534Z,2.50
2022-10-10T22:01:38.431Z,2.92
2022-10-10T22:04:05.871Z,2.65
2022-10-10T22:06:32.606Z,2.10
2022-10-10T22:09:00.763Z,2.10
2022-10-10T22:11:28.397Z,1.83
2022-10-10T22:13:55.373Z,1.83
2022-10-10T22:16:22.571Z,2.08
2022-10-10T22:18:54.293Z,2.25
2022-10-10T22:21:21.023Z,2.28
2022-10-10T22:23:47.637Z,2.40
2022-10-10T22:26:15.957Z,2.28
2022-10-10T22:28:44.002Z,2.15
2022-10-10T22:31:13.303Z,1.90
2022-10-10T22:33:40.608Z,2.15
2022-10-10T22:36:08.793Z,2.03
2022-10-10T22:38:41.530Z,2.33
2022-10-10T22:41:09.369Z,2.53
2022-10-10T22:43:36.190Z,2.20
2022-10-10T22:46:03.625Z,1.98
2022-10-10T22:48:30.549Z,1.80
2022-10-10T22:51:11.987Z,1.88
2022-10-10T22:53:40.475Z,2.17
2022-10-10T22:56:08.433Z,1.90
2022-10-10T22:58:35.271Z,2.47
2022-10-10T23:01:07.171Z,1.90
2022-10-10T23:03:35.221Z,1.75
2022-10-10T23:06:02.862Z,2.20
2022-10-10T23:08:30.015Z,1.85
2022-10-10T23:10:56.681Z,2.03
2022-10-10T23:13:23.280Z,2.10
2022-10-10T23:15:49.918Z,2.00
2022-10-10T23:18:16.648Z,1.73
2022-10-10T23:20:46.234Z,2.05
2022-10-10T23:23:13.674Z,1.60
2022-10-10T23:25:41.580Z,1.80
2022-10-10T23:28:08.513Z,1.75
2022-10-10T23:30:38.851Z,1.83
2022-10-10T23:33:06.212Z,2.00
2022-10-10T23:35:33.495Z,1.92
2022-10-10T23:38:00.421Z,2.00
2022-10-10T23:40:27.134Z,2.10
2022-10-10T23:42:53.907Z,2.05
2022-10-10T23:45:21.350Z,2.75
2022-10-10T23:47:47.961Z,2.70
2022-10-10T23:50:14.829Z,2.92
2022-10-10T23:52:41.406Z,2.90
2022-10-10T23:55:08.521Z,2.67
2022-10-10T23:57:35.159Z,2.80
